sensor_id;sensor_type;location;lat;lon;timestamp;P1;durP1;ratioP1;P2;durP2;ratioP2
24090;SDS011;12272;52.426;17.100;2022-09-09T00:03:19;3.47;;;3.13;;
24090;SDS011;12272;52.426;17.100;2022-09-09T00:08:31;2.92;;;2.72;;
24090;SDS011;12272;52.426;17.100;2022-09-09T00:13:53;4.13;;;3.25;;
24090;SDS011;12272;52.426;17.100;2022-09-09T00:19:05;5.38;;;3.40;;
24090;SDS011;12272;52.426;17.100;2022-09-09T00:24:23;3.75;;;2.80;;
24090;SDS011;12272;52.426;17.100;2022-09-09T00:29:35;4.03;;;3.63;;
24090;SDS011;12272;52.426;17.100;2022-09-09T00:35:30;3.28;;;2.97;;
24090;SDS011;12272;52.426;17.100;2022-09-09T00:40:40;4.20;;;3.05;;
24090;SDS011;12272;52.426;17.100;2022-09-09T00:46:53;4.15;;;3.50;;
24090;SDS011;12272;52.426;17.100;2022-09-09T00:51:52;4.35;;;3.33;;
24090;SDS011;12272;52.426;17.100;2022-09-09T00:57:07;2.95;;;2.72;;
24090;SDS011;12272;52.426;17.100;2022-09-09T01:02:27;3.67;;;3.30;;
24090;SDS011;12272;52.426;17.100;2022-09-09T01:07:36;3.67;;;3.38;;
24090;SDS011;12272;52.426;17.100;2022-09-09T01:17:51;3.95;;;3.58;;
24090;SDS011;12272;52.426;17.100;2022-09-09T01:29:10;3.38;;;3.08;;
24090;SDS011;12272;52.426;17.100;2022-09-09T01:34:16;3.35;;;3.05;;
24090;SDS011;12272;52.426;17.100;2022-09-09T01:39:19;3.67;;;3.13;;
24090;SDS011;12272;52.426;17.100;2022-09-09T01:44:30;3.42;;;3.05;;
24090;SDS011;12272;52.426;17.100;2022-09-09T01:49:35;4.90;;;3.53;;
24090;SDS011;12272;52.426;17.100;2022-09-09T01:54:45;4.43;;;3.90;;
24090;SDS011;12272;52.426;17.100;2022-09-09T02:16:28;3.72;;;3.38;;
24090;SDS011;12272;52.426;17.100;2022-09-09T02:21:50;3.75;;;3.08;;
24090;SDS011;12272;52.426;17.100;2022-09-09T02:26:55;4.28;;;3.17;;
24090;SDS011;12272;52.426;17.100;2022-09-09T02:32:01;3.08;;;2.80;;
24090;SDS011;12272;52.426;17.100;2022-09-09T02:37:11;3.22;;;2.92;;
24090;SDS011;12272;52.426;17.100;2022-09-09T02:42:20;3.33;;;3.00;;
24090;SDS011;12272;52.426;17.100;2022-09-09T02:58:12;3.55;;;3.25;;
24090;SDS011;12272;52.426;17.100;2022-09-09T03:03:26;3.25;;;2.97;;
24090;SDS011;12272;52.426;17.100;2022-09-09T03:08:30;3.33;;;3.03;;
24090;SDS011;12272;52.426;17.100;2022-09-09T03:13:35;3.42;;;3.17;;
24090;SDS011;12272;52.426;17.100;2022-09-09T03:18:37;3.22;;;2.92;;
24090;SDS011;12272;52.426;17.100;2022-09-09T03:23:40;3.15;;;2.83;;
24090;SDS011;12272;52.426;17.100;2022-09-09T03:28:43;3.30;;;3.08;;
24090;SDS011;12272;52.426;17.100;2022-09-09T03:33:49;4.50;;;4.10;;
24090;SDS011;12272;52.426;17.100;2022-09-09T03:38:54;4.95;;;4.45;;
24090;SDS011;12272;52.426;17.100;2022-09-09T03:43:59;3.25;;;2.95;;
24090;SDS011;12272;52.426;17.100;2022-09-09T03:49:07;4.00;;;3.47;;
24090;SDS011;12272;52.426;17.100;2022-09-09T03:54:09;4.45;;;3.25;;
24090;SDS011;12272;52.426;17.100;2022-09-09T03:59:13;3.33;;;3.03;;
24090;SDS011;12272;52.426;17.100;2022-09-09T04:04:17;3.60;;;3.30;;
24090;SDS011;12272;52.426;17.100;2022-09-09T04:09:21;3.10;;;2.78;;
24090;SDS011;12272;52.426;17.100;2022-09-09T04:14:26;7.32;;;6.45;;
24090;SDS011;12272;52.426;17.100;2022-09-09T04:19:32;8.50;;;7.00;;
24090;SDS011;12272;52.426;17.100;2022-09-09T04:24:35;3.65;;;3.35;;
24090;SDS011;12272;52.426;17.100;2022-09-09T04:29:39;4.43;;;4.03;;
24090;SDS011;12272;52.426;17.100;2022-09-09T04:34:43;4.22;;;3.83;;
24090;SDS011;12272;52.426;17.100;2022-09-09T04:39:46;5.80;;;4.47;;
24090;SDS011;12272;52.426;17.100;2022-09-09T04:44:52;4.85;;;4.30;;
24090;SDS011;12272;52.426;17.100;2022-09-09T04:49:58;5.90;;;5.35;;
24090;SDS011;12272;52.426;17.100;2022-09-09T04:55:01;16.10;;;12.90;;
24090;SDS011;12272;52.426;17.100;2022-09-09T05:00:04;14.57;;;12.27;;
24090;SDS011;12272;52.426;17.100;2022-09-09T05:05:11;10.32;;;9.30;;
24090;SDS011;12272;52.426;17.100;2022-09-09T05:10:15;10.80;;;9.80;;
24090;SDS011;12272;52.426;17.100;2022-09-09T05:15:21;11.75;;;10.15;;
24090;SDS011;12272;52.426;17.100;2022-09-09T05:20:23;15.20;;;13.38;;
24090;SDS011;12272;52.426;17.100;2022-09-09T05:25:26;15.88;;;12.00;;
24090;SDS011;12272;52.426;17.100;2022-09-09T05:30:30;9.95;;;8.88;;
24090;SDS011;12272;52.426;17.100;2022-09-09T05:35:35;9.75;;;8.57;;
24090;SDS011;12272;52.426;17.100;2022-09-09T05:40:46;8.52;;;7.75;;
24090;SDS011;12272;52.426;17.100;2022-09-09T05:51:05;8.45;;;7.63;;
24090;SDS011;12272;52.426;17.100;2022-09-09T05:56:15;21.73;;;16.38;;
24090;SDS011;12272;52.426;17.100;2022-09-09T06:01:28;14.63;;;9.40;;
24090;SDS011;12272;52.426;17.100;2022-09-09T06:06:35;10.95;;;9.25;;
24090;SDS011;12272;52.426;17.100;2022-09-09T06:11:44;16.35;;;10.57;;
24090;SDS011;12272;52.426;17.100;2022-09-09T06:16:48;8.38;;;7.50;;
24090;SDS011;12272;52.426;17.100;2022-09-09T06:21:56;32.63;;;22.13;;
24090;SDS011;12272;52.426;17.100;2022-09-09T06:26:58;33.37;;;22.93;;
24090;SDS011;12272;52.426;17.100;2022-09-09T06:32:06;39.57;;;24.57;;
24090;SDS011;12272;52.426;17.100;2022-09-09T06:37:10;37.57;;;26.87;;
24090;SDS011;12272;52.426;17.100;2022-09-09T06:42:19;24.73;;;19.07;;
24090;SDS011;12272;52.426;17.100;2022-09-09T06:47:24;24.05;;;17.52;;
24090;SDS011;12272;52.426;17.100;2022-09-09T06:52:29;18.15;;;14.27;;
24090;SDS011;12272;52.426;17.100;2022-09-09T06:57:31;22.98;;;17.15;;
24090;SDS011;12272;52.426;17.100;2022-09-09T07:02:41;17.00;;;14.38;;
24090;SDS011;12272;52.426;17.100;2022-09-09T07:07:46;19.10;;;15.05;;
24090;SDS011;12272;52.426;17.100;2022-09-09T07:12:52;15.77;;;13.63;;
24090;SDS011;12272;52.426;17.100;2022-09-09T07:18:00;16.35;;;13.55;;
24090;SDS011;12272;52.426;17.100;2022-09-09T07:23:04;15.80;;;13.02;;
24090;SDS011;12272;52.426;17.100;2022-09-09T07:28:07;15.88;;;13.55;;
24090;SDS011;12272;52.426;17.100;2022-09-09T07:33:10;14.68;;;13.18;;
24090;SDS011;12272;52.426;17.100;2022-09-09T07:38:13;17.15;;;14.30;;
24090;SDS011;12272;52.426;17.100;2022-09-09T07:43:17;13.80;;;12.40;;
24090;SDS011;12272;52.426;17.100;2022-09-09T07:48:20;13.95;;;12.15;;
24090;SDS011;12272;52.426;17.100;2022-09-09T07:53:23;13.88;;;12.30;;
24090;SDS011;12272;52.426;17.100;2022-09-09T07:58:25;14.73;;;12.88;;
24090;SDS011;12272;52.426;17.100;2022-09-09T08:03:28;14.23;;;12.10;;
24090;SDS011;12272;52.426;17.100;2022-09-09T08:08:31;14.95;;;13.10;;
24090;SDS011;12272;52.426;17.100;2022-09-09T08:13:35;15.73;;;12.18;;
24090;SDS011;12272;52.426;17.100;2022-09-09T08:18:38;12.93;;;11.63;;
24090;SDS011;12272;52.426;17.100;2022-09-09T08:23:42;12.82;;;11.15;;
24090;SDS011;12272;52.426;17.100;2022-09-09T08:28:48;12.63;;;11.43;;
24090;SDS011;12272;52.426;17.100;2022-09-09T08:33:54;12.27;;;10.98;;
24090;SDS011;12272;52.426;17.100;2022-09-09T08:38:58;16.48;;;11.18;;
24090;SDS011;12272;52.426;17.100;2022-09-09T08:49:17;11.90;;;10.68;;
24090;SDS011;12272;52.426;17.100;2022-09-09T08:54:34;11.68;;;10.43;;
24090;SDS011;12272;52.426;17.100;2022-09-09T08:59:54;11.27;;;10.05;;
24090;SDS011;12272;52.426;17.100;2022-09-09T09:05:06;11.68;;;9.68;;
24090;SDS011;12272;52.426;17.100;2022-09-09T09:15:50;11.63;;;10.52;;
24090;SDS011;12272;52.426;17.100;2022-09-09T09:21:02;12.02;;;10.38;;
24090;SDS011;12272;52.426;17.100;2022-09-09T09:26:09;11.55;;;10.30;;
24090;SDS011;12272;52.426;17.100;2022-09-09T09:31:16;9.10;;;8.30;;
24090;SDS011;12272;52.426;17.100;2022-09-09T09:36:33;10.35;;;9.25;;
24090;SDS011;12272;52.426;17.100;2022-09-09T09:41:40;10.95;;;8.82;;
24090;SDS011;12272;52.426;17.100;2022-09-09T09:46:46;9.10;;;8.27;;
24090;SDS011;12272;52.426;17.100;2022-09-09T09:51:50;7.28;;;6.55;;
24090;SDS011;12272;52.426;17.100;2022-09-09T09:56:55;10.18;;;9.18;;
24090;SDS011;12272;52.426;17.100;2022-09-09T10:07:18;8.43;;;7.65;;
24090;SDS011;12272;52.426;17.100;2022-09-09T10:34:17;9.55;;;8.55;;
24090;SDS011;12272;52.426;17.100;2022-09-09T10:39:38;9.25;;;8.40;;
24090;SDS011;12272;52.426;17.100;2022-09-09T10:50:14;4.38;;;3.97;;
24090;SDS011;12272;52.426;17.100;2022-09-09T10:55:23;3.90;;;3.60;;
24090;SDS011;12272;52.426;17.100;2022-09-09T11:00:37;7.32;;;6.70;;
24090;SDS011;12272;52.426;17.100;2022-09-09T11:05:42;5.63;;;5.10;;
24090;SDS011;12272;52.426;17.100;2022-09-09T11:21:31;2.63;;;2.42;;
24090;SDS011;12272;52.426;17.100;2022-09-09T11:26:39;4.55;;;4.18;;
24090;SDS011;12272;52.426;17.100;2022-09-09T11:31:54;5.97;;;5.07;;
24090;SDS011;12272;52.426;17.100;2022-09-09T11:42:49;4.38;;;2.20;;
24090;SDS011;12272;52.426;17.100;2022-09-09T11:48:28;6.25;;;5.63;;
24090;SDS011;12272;52.426;17.100;2022-09-09T11:53:31;6.25;;;5.65;;
24090;SDS011;12272;52.426;17.100;2022-09-09T11:58:37;4.05;;;2.05;;
24090;SDS011;12272;52.426;17.100;2022-09-09T12:03:46;11.43;;;2.25;;
24090;SDS011;12272;52.426;17.100;2022-09-09T12:09:38;7.20;;;5.55;;
24090;SDS011;12272;52.426;17.100;2022-09-09T12:14:38;6.90;;;2.00;;
24090;SDS011;12272;52.426;17.100;2022-09-09T12:19:45;1.80;;;1.23;;
24090;SDS011;12272;52.426;17.100;2022-09-09T12:25:34;3.28;;;1.48;;
24090;SDS011;12272;52.426;17.100;2022-09-09T12:30:34;7.30;;;6.60;;
24090;SDS011;12272;52.426;17.100;2022-09-09T12:35:43;4.03;;;2.83;;
24090;SDS011;12272;52.426;17.100;2022-09-09T12:40:54;3.97;;;3.58;;
24090;SDS011;12272;52.426;17.100;2022-09-09T12:46:01;2.28;;;2.05;;
24090;SDS011;12272;52.426;17.100;2022-09-09T12:51:44;8.00;;;4.28;;
24090;SDS011;12272;52.426;17.100;2022-09-09T12:56:39;26.40;;;18.00;;
24090;SDS011;12272;52.426;17.100;2022-09-09T13:01:54;9.85;;;7.90;;
24090;SDS011;12272;52.426;17.100;2022-09-09T13:07:07;16.65;;;14.25;;
24090;SDS011;12272;52.426;17.100;2022-09-09T13:12:16;5.20;;;4.65;;
24090;SDS011;12272;52.426;17.100;2022-09-09T13:17:23;48.63;;;42.75;;
24090;SDS011;12272;52.426;17.100;2022-09-09T13:22:31;52.10;;;44.83;;
24090;SDS011;12272;52.426;17.100;2022-09-09T13:27:38;50.25;;;44.17;;
24090;SDS011;12272;52.426;17.100;2022-09-09T13:32:43;4.65;;;3.25;;
24090;SDS011;12272;52.426;17.100;2022-09-09T13:37:45;36.45;;;30.50;;
24090;SDS011;12272;52.426;17.100;2022-09-09T13:42:50;5.20;;;2.80;;
24090;SDS011;12272;52.426;17.100;2022-09-09T13:47:55;3.85;;;2.38;;
24090;SDS011;12272;52.426;17.100;2022-09-09T13:52:58;4.53;;;1.52;;
24090;SDS011;12272;52.426;17.100;2022-09-09T13:58:02;4.18;;;2.22;;
24090;SDS011;12272;52.426;17.100;2022-09-09T14:03:04;5.68;;;2.55;;
24090;SDS011;12272;52.426;17.100;2022-09-09T14:08:09;26.45;;;22.70;;
24090;SDS011;12272;52.426;17.100;2022-09-09T14:13:24;28.83;;;25.73;;
24090;SDS011;12272;52.426;17.100;2022-09-09T14:18:27;22.63;;;19.67;;
24090;SDS011;12272;52.426;17.100;2022-09-09T14:23:29;26.63;;;20.80;;
24090;SDS011;12272;52.426;17.100;2022-09-09T14:28:32;15.63;;;13.98;;
24090;SDS011;12272;52.426;17.100;2022-09-09T14:33:55;2.85;;;1.70;;
24090;SDS011;12272;52.426;17.100;2022-09-09T14:38:57;5.40;;;3.08;;
24090;SDS011;12272;52.426;17.100;2022-09-09T14:44:00;17.30;;;14.05;;
24090;SDS011;12272;52.426;17.100;2022-09-09T14:49:02;25.23;;;21.38;;
24090;SDS011;12272;52.426;17.100;2022-09-09T14:54:06;9.95;;;8.55;;
24090;SDS011;12272;52.426;17.100;2022-09-09T14:59:08;18.10;;;16.17;;
24090;SDS011;12272;52.426;17.100;2022-09-09T15:04:11;22.88;;;20.45;;
24090;SDS011;12272;52.426;17.100;2022-09-09T15:09:15;14.18;;;12.63;;
24090;SDS011;12272;52.426;17.100;2022-09-09T15:14:18;21.50;;;18.48;;
24090;SDS011;12272;52.426;17.100;2022-09-09T15:19:26;22.05;;;18.38;;
24090;SDS011;12272;52.426;17.100;2022-09-09T15:24:28;22.13;;;19.85;;
24090;SDS011;12272;52.426;17.100;2022-09-09T15:29:31;20.10;;;17.92;;
24090;SDS011;12272;52.426;17.100;2022-09-09T15:34:34;9.10;;;8.07;;
24090;SDS011;12272;52.426;17.100;2022-09-09T15:39:37;10.27;;;9.23;;
24090;SDS011;12272;52.426;17.100;2022-09-09T15:44:40;11.80;;;6.28;;
24090;SDS011;12272;52.426;17.100;2022-09-09T15:49:44;3.80;;;1.83;;
24090;SDS011;12272;52.426;17.100;2022-09-09T15:54:46;20.52;;;18.10;;
24090;SDS011;12272;52.426;17.100;2022-09-09T15:59:49;3.42;;;2.35;;
24090;SDS011;12272;52.426;17.100;2022-09-09T16:04:51;25.73;;;7.78;;
24090;SDS011;12272;52.426;17.100;2022-09-09T16:09:54;4.57;;;2.75;;
24090;SDS011;12272;52.426;17.100;2022-09-09T16:14:56;2.20;;;1.52;;
24090;SDS011;12272;52.426;17.100;2022-09-09T16:19:58;2.22;;;2.03;;
24090;SDS011;12272;52.426;17.100;2022-09-09T16:25:01;177.25;;;43.08;;
24090;SDS011;12272;52.426;17.100;2022-09-09T16:30:04;326.52;;;87.05;;
24090;SDS011;12272;52.426;17.100;2022-09-09T16:35:06;186.68;;;46.00;;
24090;SDS011;12272;52.426;17.100;2022-09-09T16:40:09;332.73;;;85.05;;
24090;SDS011;12272;52.426;17.100;2022-09-09T16:45:11;50.53;;;14.57;;
24090;SDS011;12272;52.426;17.100;2022-09-09T16:50:14;4.60;;;2.50;;
24090;SDS011;12272;52.426;17.100;2022-09-09T16:55:17;4.93;;;2.40;;
24090;SDS011;12272;52.426;17.100;2022-09-09T17:00:22;4.22;;;2.05;;
24090;SDS011;12272;52.426;17.100;2022-09-09T17:05:25;7.03;;;2.40;;
24090;SDS011;12272;52.426;17.100;2022-09-09T17:10:27;10.90;;;2.83;;
24090;SDS011;12272;52.426;17.100;2022-09-09T17:15:29;8.60;;;2.60;;
24090;SDS011;12272;52.426;17.100;2022-09-09T17:20:34;7.30;;;2.88;;
24090;SDS011;12272;52.426;17.100;2022-09-09T17:25:55;4.93;;;3.10;;
24090;SDS011;12272;52.426;17.100;2022-09-09T17:30:58;8.38;;;3.15;;
24090;SDS011;12272;52.426;17.100;2022-09-09T17:36:18;10.27;;;3.40;;
24090;SDS011;12272;52.426;17.100;2022-09-09T17:41:25;7.85;;;4.13;;
24090;SDS011;12272;52.426;17.100;2022-09-09T17:46:30;13.68;;;4.78;;
24090;SDS011;12272;52.426;17.100;2022-09-09T17:51:37;9.25;;;4.57;;
24090;SDS011;12272;52.426;17.100;2022-09-09T17:56:40;5.65;;;5.00;;
24090;SDS011;12272;52.426;17.100;2022-09-09T18:01:44;12.07;;;5.75;;
24090;SDS011;12272;52.426;17.100;2022-09-09T18:06:49;7.22;;;5.97;;
24090;SDS011;12272;52.426;17.100;2022-09-09T18:11:54;12.93;;;6.80;;
24090;SDS011;12272;52.426;17.100;2022-09-09T18:16:59;8.93;;;6.90;;
24090;SDS011;12272;52.426;17.100;2022-09-09T18:22:03;9.77;;;8.00;;
24090;SDS011;12272;52.426;17.100;2022-09-09T18:27:07;14.35;;;8.55;;
24090;SDS011;12272;52.426;17.100;2022-09-09T18:32:10;9.43;;;8.50;;
24090;SDS011;12272;52.426;17.100;2022-09-09T18:37:12;13.80;;;8.57;;
24090;SDS011;12272;52.426;17.100;2022-09-09T18:42:15;9.13;;;8.23;;
24090;SDS011;12272;52.426;17.100;2022-09-09T18:47:18;10.32;;;9.23;;
24090;SDS011;12272;52.426;17.100;2022-09-09T18:52:20;11.35;;;9.88;;
24090;SDS011;12272;52.426;17.100;2022-09-09T18:57:23;13.60;;;9.57;;
24090;SDS011;12272;52.426;17.100;2022-09-09T19:02:25;12.35;;;9.95;;
24090;SDS011;12272;52.426;17.100;2022-09-09T19:07:28;10.63;;;9.52;;
24090;SDS011;12272;52.426;17.100;2022-09-09T19:12:30;9.43;;;8.63;;
24090;SDS011;12272;52.426;17.100;2022-09-09T19:17:33;10.32;;;9.27;;
24090;SDS011;12272;52.426;17.100;2022-09-09T19:22:37;10.65;;;9.63;;
24090;SDS011;12272;52.426;17.100;2022-09-09T19:27:39;10.77;;;9.77;;
24090;SDS011;12272;52.426;17.100;2022-09-09T19:32:43;11.85;;;9.95;;
24090;SDS011;12272;52.426;17.100;2022-09-09T19:37:56;11.15;;;10.05;;
24090;SDS011;12272;52.426;17.100;2022-09-09T19:42:59;10.63;;;9.63;;
24090;SDS011;12272;52.426;17.100;2022-09-09T19:48:02;11.40;;;10.27;;
24090;SDS011;12272;52.426;17.100;2022-09-09T19:53:07;10.32;;;9.43;;
24090;SDS011;12272;52.426;17.100;2022-09-09T19:58:09;11.38;;;10.35;;
24090;SDS011;12272;52.426;17.100;2022-09-09T20:03:12;11.48;;;10.35;;
24090;SDS011;12272;52.426;17.100;2022-09-09T20:08:20;12.48;;;10.88;;
24090;SDS011;12272;52.426;17.100;2022-09-09T20:13:23;11.25;;;10.02;;
24090;SDS011;12272;52.426;17.100;2022-09-09T20:18:26;10.90;;;9.80;;
24090;SDS011;12272;52.426;17.100;2022-09-09T20:23:32;10.88;;;9.88;;
24090;SDS011;12272;52.426;17.100;2022-09-09T20:28:35;10.23;;;9.23;;
24090;SDS011;12272;52.426;17.100;2022-09-09T20:33:39;10.55;;;9.65;;
24090;SDS011;12272;52.426;17.100;2022-09-09T20:38:43;11.20;;;10.10;;
24090;SDS011;12272;52.426;17.100;2022-09-09T20:43:51;10.70;;;9.70;;
24090;SDS011;12272;52.426;17.100;2022-09-09T20:48:55;11.30;;;10.20;;
24090;SDS011;12272;52.426;17.100;2022-09-09T20:54:22;11.52;;;10.45;;
24090;SDS011;12272;52.426;17.100;2022-09-09T20:59:27;9.65;;;8.27;;
24090;SDS011;12272;52.426;17.100;2022-09-09T21:04:31;12.63;;;10.80;;
24090;SDS011;12272;52.426;17.100;2022-09-09T21:09:33;10.38;;;9.38;;
24090;SDS011;12272;52.426;17.100;2022-09-09T21:14:36;10.98;;;9.98;;
24090;SDS011;12272;52.426;17.100;2022-09-09T21:19:38;10.82;;;9.73;;
24090;SDS011;12272;52.426;17.100;2022-09-09T21:24:41;10.77;;;9.75;;
24090;SDS011;12272;52.426;17.100;2022-09-09T21:29:44;10.30;;;9.18;;
24090;SDS011;12272;52.426;17.100;2022-09-09T21:34:48;11.68;;;9.95;;
24090;SDS011;12272;52.426;17.100;2022-09-09T21:39:50;10.82;;;9.73;;
24090;SDS011;12272;52.426;17.100;2022-09-09T21:44:53;10.45;;;9.45;;
24090;SDS011;12272;52.426;17.100;2022-09-09T21:49:56;10.50;;;9.50;;
24090;SDS011;12272;52.426;17.100;2022-09-09T21:54:58;10.95;;;9.95;;
24090;SDS011;12272;52.426;17.100;2022-09-09T22:00:02;10.88;;;9.88;;
24090;SDS011;12272;52.426;17.100;2022-09-09T22:05:13;10.45;;;9.55;;
24090;SDS011;12272;52.426;17.100;2022-09-09T22:10:15;11.05;;;9.95;;
24090;SDS011;12272;52.426;17.100;2022-09-09T22:15:20;11.55;;;10.55;;
24090;SDS011;12272;52.426;17.100;2022-09-09T22:20:23;10.50;;;9.50;;
24090;SDS011;12272;52.426;17.100;2022-09-09T22:25:26;11.57;;;10.60;;
24090;SDS011;12272;52.426;17.100;2022-09-09T22:30:29;11.20;;;10.20;;
24090;SDS011;12272;52.426;17.100;2022-09-09T22:35:31;11.93;;;10.75;;
24090;SDS011;12272;52.426;17.100;2022-09-09T22:40:45;11.82;;;10.73;;
24090;SDS011;12272;52.426;17.100;2022-09-09T22:45:48;11.00;;;10.05;;
24090;SDS011;12272;52.426;17.100;2022-09-09T22:50:51;11.23;;;10.18;;
24090;SDS011;12272;52.426;17.100;2022-09-09T22:55:55;11.15;;;10.18;;
24090;SDS011;12272;52.426;17.100;2022-09-09T23:01:06;11.82;;;10.73;;
24090;SDS011;12272;52.426;17.100;2022-09-09T23:06:13;11.88;;;10.77;;
24090;SDS011;12272;52.426;17.100;2022-09-09T23:11:24;11.00;;;10.00;;
24090;SDS011;12272;52.426;17.100;2022-09-09T23:16:33;11.00;;;10.00;;
24090;SDS011;12272;52.426;17.100;2022-09-09T23:21:39;11.43;;;10.48;;
24090;SDS011;12272;52.426;17.100;2022-09-09T23:26:42;11.07;;;9.98;;
24090;SDS011;12272;52.426;17.100;2022-09-09T23:31:46;11.57;;;10.27;;
24090;SDS011;12272;52.426;17.100;2022-09-09T23:36:48;11.23;;;10.23;;
24090;SDS011;12272;52.426;17.100;2022-09-09T23:41:51;11.70;;;10.70;;
24090;SDS011;12272;52.426;17.100;2022-09-09T23:46:53;11.38;;;10.38;;
24090;SDS011;12272;52.426;17.100;2022-09-09T23:51:55;11.48;;;10.38;;
24090;SDS011;12272;52.426;17.100;2022-09-09T23:56:58;11.88;;;10.70;;
